Bethune, CO (80805)

3:48 AM MDT on April 28, 2017 (GMT -0600)
Stratton Equity Coop | | Change Station
Active Advisory: Winter Storm Watch

Elev 4416 ft 39.31 °N, 102.60 °W | Updated 1 minute ago

Clear
Clear
36.3 °F
Feels Like 33 °F
N
4.0
Wind Variable Wind from North
Gusts 9.0 mph

Today
High -- | Low -- °F
--% Chance of Precip.
Yesterday
High -- | Low -- °F
Precip. -- in
Pressure 29.55 in
Visibility 10.0 miles
Clouds Clear
Windchill 33 °F
Dew Point 34 °F
Humidity 92%
Rainfall 0.00 in
Snow Depth Not available.
5:54 AM 7:40 PM
Waxing Crescent, 5% visible
METAR KGLD 280853Z AUTO 29009KT 10SM CLR 02/02 A2958 RMK AO2 SLP006 T00220017 55006
Pressure 29.55 in
Visibility 10.0 miles
Clouds Clear
Windchill 33 °F
Dew Point 34 °F
Humidity 92%
Rainfall 0.00 in
Snow Depth Not available.
5:54 AM 7:40 PM
Waxing Crescent, 5% visible
METAR KGLD 280853Z AUTO 29009KT 10SM CLR 02/02 A2958 RMK AO2 SLP006 T00220017 55006

Get Your Daily Forecast Email!

Thanks for signing up!

Be on the lookout for a verification email in your inbox.

You'll start receiving severe weather alerts in your inbox..

×

10-Day Weather Forecast

Almanac

Astronomy

Apr. 28, 2017 Rise Set
Actual Time
Civil Twilight
Nautical Twilight
Astronomical Twilight
Moon
Length of Visible Light
Length of Day
Tomorrow will be .
, % of the Moon is Illuminated

Today's Extremes

State Highs State Lows

Community

WunderPhotos

WunderBlog® & News

Nearby

Air Quality

  Air Quality AQ Index Pollutant
Not available.

Snow Depth

Station Depth Elevation

Earthquake Activity

City Distance Mag. Time & Date
Minimum magnitude displayed is 2.5.

Coastal Water Temperatures

Place Temperature

Stations

Nearby Weather Stations

Station Location Temp. Windchill Dew Point Humidity Wind Precip. Elev Updated Type
                   

Watches & Warnings

Winter Storm Watch
Issued: 3:05 AM MDT Apr. 28, 2017 – National Weather Service

... Winter Storm Watch now in effect from Saturday morning through
Sunday morning...

* accumulations... snow accumulation of 5 to 7 inches.

* Impacts... heavy wet snow is expected to fall tonight through
Saturday morning. Snow or a rain snow mix will fall through the
day on Saturday before becoming all snow Saturday evening
through Sunday morning. Gusty winds will accompany the system
with gusts up to 40 mph.


Precautionary/preparedness actions...

A Winter Storm Watch means there is a potential for significant
snow... sleet... or ice accumulations that may impact travel.
Continue to monitor the latest forecasts.